createdAt,value
2023-02-11T00:01:14.471Z,0.20
2023-02-11T00:03:41.554Z,0.20
2023-02-11T00:06:12.053Z,0.20
2023-02-11T00:08:39.669Z,0.10
2023-02-11T00:11:06.769Z,0.10
2023-02-11T00:13:33.734Z,0.30
2023-02-11T00:16:00.661Z,0.15
2023-02-11T00:18:28.359Z,0.20
2023-02-11T00:20:55.370Z,0.15
2023-02-11T00:23:25.572Z,0.10
2023-02-11T00:25:52.730Z,0.20
2023-02-11T00:28:19.828Z,0.15
2023-02-11T00:30:54.990Z,0.10
2023-02-11T00:33:22.002Z,0.10
2023-02-11T00:35:49.241Z,0.10
2023-02-11T00:38:16.770Z,0.13
2023-02-11T00:40:43.703Z,0.10
2023-02-11T00:43:10.724Z,0.17
2023-02-11T00:45:37.798Z,0.08
2023-02-11T00:48:04.682Z,0.22
2023-02-11T00:50:31.604Z,0.10
2023-02-11T00:52:58.656Z,0.10
2023-02-11T00:55:25.577Z,0.10
2023-02-11T00:57:52.548Z,0.10
2023-02-11T01:00:19.679Z,0.10
2023-02-11T01:02:46.589Z,0.20
2023-02-11T01:05:13.589Z,0.17
2023-02-11T01:07:40.539Z,0.20
2023-02-11T01:10:07.732Z,0.10
2023-02-11T01:12:36.511Z,0.13
2023-02-11T01:15:04.775Z,0.20
2023-02-11T01:17:31.623Z,0.10
2023-02-11T01:19:58.551Z,0.10
2023-02-11T01:22:25.475Z,0.17
2023-02-11T01:24:52.384Z,0.10
2023-02-11T01:27:19.352Z,0.30
2023-02-11T01:29:46.308Z,0.20
2023-02-11T01:32:13.403Z,0.30
2023-02-11T01:34:40.324Z,0.13
2023-02-11T01:37:07.291Z,0.20
2023-02-11T01:39:35.243Z,0.10
2023-02-11T01:42:02.346Z,0.22
2023-02-11T01:44:33.706Z,0.17
2023-02-11T01:47:00.866Z,0.30
2023-02-11T01:49:31.629Z,0.25
2023-02-11T01:52:13.914Z,0.20
2023-02-11T01:55:06.625Z,0.30
2023-02-11T01:57:36.488Z,0.10
2023-02-11T02:00:09.685Z,0.10
2023-02-11T02:02:49.662Z,0.20
2023-02-11T02:05:49.264Z,0.20
2023-02-11T02:08:35.633Z,0.20
2023-02-11T02:11:03.673Z,0.20
2023-02-11T02:13:33.920Z,0.20
2023-02-11T02:16:15.019Z,0.10
2023-02-11T02:19:00.440Z,0.20
2023-02-11T02:21:56.896Z,0.30
2023-02-11T02:24:56.892Z,0.20
2023-02-11T02:27:26.501Z,0.38
2023-02-11T02:30:30.820Z,0.20
2023-02-11T02:33:22.423Z,0.20
2023-02-11T02:35:52.570Z,0.22
2023-02-11T02:38:28.353Z,0.30
2023-02-11T02:41:01.827Z,0.20
2023-02-11T02:43:30.850Z,0.30
2023-02-11T02:46:14.717Z,0.30
2023-02-11T02:48:42.267Z,0.30
2023-02-11T02:51:28.007Z,0.32
2023-02-11T02:54:07.174Z,0.38
2023-02-11T02:56:39.231Z,0.15
2023-02-11T02:59:27.348Z,0.43
2023-02-11T03:02:39.115Z,0.30
2023-02-11T03:05:05.982Z,0.10
2023-02-11T03:07:32.775Z,0.28
2023-02-11T03:10:11.204Z,0.28
2023-02-11T03:12:39.509Z,0.20
2023-02-11T03:15:07.422Z,0.20
2023-02-11T03:17:36.529Z,0.30
2023-02-11T03:20:06.693Z,0.30
2023-02-11T03:22:51.072Z,0.30
2023-02-11T03:25:18.432Z,0.30
2023-02-11T03:27:57.951Z,0.25
2023-02-11T03:30:38.942Z,0.47
2023-02-11T03:33:27.714Z,0.20
2023-02-11T03:36:00.504Z,0.30
2023-02-11T03:38:32.017Z,0.20
2023-02-11T03:41:02.410Z,0.20
2023-02-11T03:43:42.252Z,0.40
2023-02-11T03:46:11.698Z,0.40
2023-02-11T03:48:42.423Z,0.32
2023-02-11T03:51:12.856Z,0.45
2023-02-11T03:53:43.434Z,0.30
2023-02-11T03:56:17.206Z,0.38
2023-02-11T03:58:48.895Z,0.30
2023-02-11T04:01:16.623Z,0.30
2023-02-11T04:03:43.490Z,0.30
2023-02-11T04:06:10.427Z,0.40
2023-02-11T04:08:37.423Z,0.30
2023-02-11T04:11:04.475Z,0.20
2023-02-11T04:13:31.399Z,0.20
2023-02-11T04:15:58.287Z,0.20
2023-02-11T04:18:25.202Z,0.32
2023-02-11T04:20:52.151Z,0.30
2023-02-11T04:23:19.069Z,0.28
2023-02-11T04:25:45.898Z,0.40
2023-02-11T04:28:12.957Z,0.28
2023-02-11T04:30:39.856Z,0.20
2023-02-11T04:33:06.767Z,0.20
2023-02-11T04:35:33.612Z,0.30
2023-02-11T04:38:00.478Z,0.40
2023-02-11T04:40:27.463Z,0.30
2023-02-11T04:42:54.355Z,0.32
2023-02-11T04:45:21.250Z,0.30
2023-02-11T04:47:48.112Z,0.30
2023-02-11T04:50:15.137Z,0.40
2023-02-11T04:52:41.967Z,0.30
2023-02-11T04:55:09.094Z,0.20
2023-02-11T04:57:36.057Z,0.20
2023-02-11T05:00:03.169Z,0.25
2023-02-11T05:02:29.990Z,0.25
2023-02-11T05:04:56.896Z,0.25
2023-02-11T05:07:23.852Z,0.20
2023-02-11T05:09:50.719Z,0.25
2023-02-11T05:12:17.982Z,0.20
2023-02-11T05:14:44.782Z,0.20
2023-02-11T05:17:11.682Z,0.30
2023-02-11T05:19:38.705Z,0.30
2023-02-11T05:22:05.625Z,0.40
2023-02-11T05:24:32.603Z,0.30
2023-02-11T05:27:00.164Z,0.30
2023-02-11T05:29:27.385Z,0.30
2023-02-11T05:31:54.306Z,0.30
2023-02-11T05:34:21.297Z,0.30
2023-02-11T05:36:48.216Z,0.22
2023-02-11T05:39:15.067Z,0.20
2023-02-11T05:41:41.911Z,0.50
2023-02-11T05:44:08.764Z,0.20
2023-02-11T05:46:35.739Z,0.13
2023-02-11T05:49:02.605Z,0.40
2023-02-11T05:51:29.492Z,0.20
2023-02-11T05:53:56.305Z,0.20
2023-02-11T05:56:23.205Z,0.20
2023-02-11T05:58:50.039Z,0.30
2023-02-11T06:01:16.934Z,0.30
2023-02-11T06:03:43.797Z,0.75
2023-02-11T06:06:12.151Z,0.30
2023-02-11T06:08:39.651Z,0.55
2023-02-11T06:11:06.947Z,0.43
2023-02-11T06:13:33.748Z,0.28
2023-02-11T06:16:02.185Z,0.30
2023-02-11T06:18:29.792Z,0.30
2023-02-11T06:20:57.017Z,0.40
2023-02-11T06:23:23.894Z,0.40
2023-02-11T06:25:51.857Z,1.88
2023-02-11T06:28:19.470Z,1.27
2023-02-11T06:30:46.377Z,2.15
2023-02-11T06:33:13.292Z,2.35
2023-02-11T06:35:40.329Z,2.10
2023-02-11T06:38:07.664Z,1.48
2023-02-11T06:40:34.729Z,1.70
2023-02-11T06:43:01.608Z,1.60
2023-02-11T06:45:28.515Z,1.67
2023-02-11T06:47:55.542Z,1.52
2023-02-11T06:50:22.581Z,6.93
2023-02-11T06:52:49.454Z,4.45
2023-02-11T06:55:17.220Z,2.10
2023-02-11T06:57:44.048Z,1.20
2023-02-11T07:00:11.749Z,0.90
2023-02-11T07:02:38.618Z,1.52
2023-02-11T07:05:07.041Z,1.17
2023-02-11T07:07:34.429Z,0.98
2023-02-11T07:10:03.304Z,1.30
2023-02-11T07:12:31.312Z,3.13
2023-02-11T07:14:58.269Z,0.80
2023-02-11T07:17:25.186Z,1.27
2023-02-11T07:19:52.103Z,1.08
2023-02-11T07:22:19.021Z,0.60
2023-02-11T07:24:46.173Z,1.02
2023-02-11T07:27:13.114Z,1.30
2023-02-11T07:29:40.212Z,0.85
2023-02-11T07:32:07.284Z,1.02
2023-02-11T07:34:34.470Z,0.60
2023-02-11T07:37:01.439Z,0.70
2023-02-11T07:39:28.385Z,0.40
2023-02-11T07:41:55.484Z,0.70
2023-02-11T07:44:22.574Z,0.30
2023-02-11T07:46:49.670Z,0.80
2023-02-11T07:49:16.956Z,0.65
2023-02-11T07:51:43.838Z,0.90
2023-02-11T07:54:12.476Z,1.23
2023-02-11T07:56:39.501Z,0.73
2023-02-11T07:59:06.392Z,0.60
2023-02-11T08:01:33.343Z,0.73
2023-02-11T08:04:02.143Z,0.50
2023-02-11T08:06:31.564Z,0.80
2023-02-11T08:08:58.806Z,0.73
2023-02-11T08:11:28.822Z,1.02
2023-02-11T08:13:57.048Z,0.77
2023-02-11T08:16:28.715Z,0.85
2023-02-11T08:19:01.973Z,1.58
2023-02-11T08:21:30.046Z,1.50
2023-02-11T08:23:57.487Z,1.90
2023-02-11T08:26:29.076Z,2.00
2023-02-11T08:28:57.310Z,2.15
2023-02-11T08:31:30.400Z,1.83
2023-02-11T08:33:58.481Z,2.08
2023-02-11T08:36:29.430Z,2.40
2023-02-11T08:39:16.123Z,2.70
2023-02-11T08:41:46.901Z,2.40
2023-02-11T08:44:13.892Z,1.92
2023-02-11T08:46:40.735Z,2.45
2023-02-11T08:49:07.709Z,2.50
2023-02-11T08:51:34.779Z,2.13
2023-02-11T08:54:02.353Z,2.20
2023-02-11T08:56:31.722Z,2.28
2023-02-11T08:58:58.821Z,2.05
2023-02-11T09:01:29.051Z,2.13
2023-02-11T09:03:57.260Z,2.17
2023-02-11T09:06:25.210Z,1.85
2023-02-11T09:08:54.697Z,2.33
2023-02-11T09:11:27.311Z,1.80
2023-02-11T09:13:54.769Z,1.65
2023-02-11T09:16:28.070Z,1.70
2023-02-11T09:18:57.960Z,1.40
2023-02-11T09:21:25.056Z,1.52
2023-02-11T09:23:52.119Z,2.78
2023-02-11T09:26:22.063Z,4.10
2023-02-11T09:28:50.188Z,1.88
2023-02-11T09:31:20.388Z,2.00
2023-02-11T09:33:49.184Z,1.63
2023-02-11T09:36:25.294Z,1.33
2023-02-11T09:38:53.039Z,2.50
2023-02-11T09:41:26.071Z,3.40
2023-02-11T09:44:06.441Z,2.05
2023-02-11T09:46:38.163Z,1.23
2023-02-11T09:49:06.616Z,3.35
2023-02-11T09:51:43.452Z,3.25
2023-02-11T09:54:23.010Z,2.38
2023-02-11T09:56:49.977Z,2.03
2023-02-11T09:59:17.974Z,2.30
2023-02-11T10:01:50.746Z,1.48
2023-02-11T10:04:20.394Z,1.80
2023-02-11T10:07:15.477Z,0.90
2023-02-11T10:09:55.301Z,1.52
2023-02-11T10:12:54.216Z,2.75
2023-02-11T10:15:24.004Z,2.95
2023-02-11T10:18:17.776Z,1.90
2023-02-11T10:21:17.185Z,1.55
2023-02-11T10:23:48.991Z,3.08
2023-02-11T10:26:18.229Z,1.95
2023-02-11T10:28:50.647Z,1.85
2023-02-11T10:31:23.648Z,1.20
2023-02-11T10:34:12.529Z,2.30
2023-02-11T10:36:42.360Z,1.33
2023-02-11T10:39:24.287Z,0.65
2023-02-11T10:41:55.745Z,1.35
2023-02-11T10:44:22.616Z,1.08
2023-02-11T10:46:51.219Z,1.70
2023-02-11T10:49:45.541Z,3.08
2023-02-11T10:52:18.195Z,1.90
2023-02-11T10:55:01.405Z,2.28
2023-02-11T10:57:33.207Z,1.70
2023-02-11T11:00:06.891Z,1.10
2023-02-11T11:02:38.997Z,1.60
2023-02-11T11:05:21.552Z,1.30
2023-02-11T11:08:00.270Z,3.13
2023-02-11T11:10:43.734Z,2.80
2023-02-11T11:13:31.010Z,2.08
2023-02-11T11:16:17.891Z,2.40
2023-02-11T11:18:50.040Z,1.45
2023-02-11T11:21:23.169Z,1.10
2023-02-11T11:24:01.794Z,1.40
2023-02-11T11:26:40.980Z,1.15
2023-02-11T11:29:29.029Z,0.75
2023-02-11T11:31:59.696Z,0.60
2023-02-11T11:34:38.537Z,0.65
2023-02-11T11:37:38.512Z,0.50
2023-02-11T11:40:11.241Z,0.50
2023-02-11T11:42:40.203Z,0.43
2023-02-11T11:45:16.293Z,0.98
2023-02-11T11:47:53.199Z,0.73
2023-02-11T11:50:44.335Z,0.55
2023-02-11T11:53:21.107Z,0.47
2023-02-11T11:56:00.274Z,0.40
2023-02-11T11:58:29.546Z,0.30
2023-02-11T12:01:05.419Z,0.50
2023-02-11T12:04:01.685Z,0.30
2023-02-11T12:06:32.079Z,0.63
2023-02-11T12:09:19.640Z,0.25
2023-02-11T12:12:05.172Z,0.40
2023-02-11T12:14:44.584Z,0.20
2023-02-11T12:17:47.076Z,0.20
2023-02-11T12:20:51.201Z,0.25
2023-02-11T12:23:37.914Z,0.28
2023-02-11T12:26:16.995Z,0.20
2023-02-11T12:29:02.352Z,0.10
2023-02-11T12:31:35.750Z,0.20
2023-02-11T12:34:31.331Z,0.25
2023-02-11T12:37:08.018Z,0.10
2023-02-11T12:39:45.809Z,0.22
2023-02-11T12:43:02.145Z,0.20
2023-02-11T12:45:55.807Z,0.80
2023-02-11T12:48:45.540Z,0.88
2023-02-11T12:51:32.304Z,0.30
2023-02-11T12:54:24.674Z,2.33
2023-02-11T12:56:54.049Z,0.50
2023-02-11T12:59:20.840Z,1.00
2023-02-11T13:01:50.654Z,0.95
2023-02-11T13:04:17.554Z,0.90
2023-02-11T13:06:52.114Z,0.70
2023-02-11T13:09:25.512Z,2.92
2023-02-11T13:11:57.720Z,1.35
2023-02-11T13:14:37.154Z,0.55
2023-02-11T13:17:18.051Z,0.50
2023-02-11T13:19:52.752Z,2.08
2023-02-11T13:22:38.881Z,2.33
2023-02-11T13:25:14.420Z,0.95
2023-02-11T13:27:41.393Z,1.27
2023-02-11T13:30:25.338Z,1.20
2023-02-11T13:32:55.140Z,1.00
2023-02-11T13:35:34.436Z,1.58
2023-02-11T13:38:17.861Z,1.10
2023-02-11T13:40:45.794Z,3.70
2023-02-11T13:43:25.028Z,4.03
2023-02-11T13:45:58.045Z,6.30
2023-02-11T13:48:47.221Z,7.30
2023-02-11T13:51:17.765Z,6.93
2023-02-11T13:53:54.507Z,7.32
2023-02-11T13:56:44.394Z,8.30
2023-02-11T13:59:33.199Z,25.58
2023-02-11T14:02:18.735Z,23.40
2023-02-11T14:05:22.671Z,16.55
2023-02-11T14:08:26.239Z,16.48
2023-02-11T14:10:57.209Z,13.25
2023-02-11T14:13:34.444Z,11.45
2023-02-11T14:16:22.649Z,11.55
2023-02-11T14:18:55.107Z,10.32
2023-02-11T14:21:28.358Z,10.88
2023-02-11T14:24:15.279Z,8.60
2023-02-11T14:26:47.170Z,6.60
2023-02-11T14:29:26.158Z,2.95
2023-02-11T14:31:56.041Z,2.50
2023-02-11T14:34:47.207Z,2.78
2023-02-11T14:37:30.668Z,1.67
2023-02-11T14:40:16.207Z,1.17
2023-02-11T14:42:43.734Z,0.70
2023-02-11T14:45:19.046Z,0.70
2023-02-11T14:47:55.741Z,0.50
2023-02-11T14:50:41.293Z,0.80
2023-02-11T14:53:13.547Z,0.30
2023-02-11T14:55:43.533Z,0.93
2023-02-11T14:58:15.675Z,1.90
2023-02-11T15:00:55.471Z,0.85
2023-02-11T15:03:42.774Z,0.38
2023-02-11T15:06:23.524Z,0.50
2023-02-11T15:08:54.431Z,1.23
2023-02-11T15:11:24.288Z,2.72
2023-02-11T15:13:55.064Z,1.73
2023-02-11T15:18:56.938Z,1.25
2023-02-11T15:21:32.702Z,2.40
2023-02-11T15:24:06.266Z,2.20
2023-02-11T15:26:33.944Z,1.20
2023-02-11T15:29:01.239Z,1.00
2023-02-11T15:31:30.428Z,2.45
2023-02-11T15:34:08.115Z,1.42
2023-02-11T15:36:36.639Z,4.32
2023-02-11T15:39:31.754Z,3.00
2023-02-11T15:42:51.878Z,2.20
2023-02-11T15:45:29.267Z,2.20
2023-02-11T15:48:13.435Z,1.58
2023-02-11T15:50:43.077Z,1.85
2023-02-11T15:53:34.649Z,4.53
2023-02-11T15:58:28.354Z,3.63
2023-02-11T16:00:59.937Z,2.05
2023-02-11T16:03:33.043Z,1.35
2023-02-11T16:06:17.221Z,1.65
2023-02-11T16:08:57.317Z,3.60
2023-02-11T16:11:36.257Z,2.40
2023-02-11T16:14:39.536Z,2.30
2023-02-11T16:17:12.873Z,1.65
2023-02-11T16:19:49.213Z,2.42
2023-02-11T16:22:20.745Z,2.40
2023-02-11T16:24:50.136Z,2.40
2023-02-11T16:27:40.841Z,3.33
2023-02-11T16:30:37.783Z,2.47
2023-02-11T16:33:05.746Z,4.07
2023-02-11T16:35:33.315Z,3.92
2023-02-11T16:38:00.612Z,4.85
2023-02-11T16:40:27.796Z,3.40
2023-02-11T16:42:54.840Z,2.97
2023-02-11T16:45:21.902Z,2.30
2023-02-11T16:47:49.058Z,3.00
2023-02-11T16:50:23.317Z,3.10
2023-02-11T16:52:52.562Z,2.97
2023-02-11T16:55:22.079Z,2.30
2023-02-11T16:57:49.236Z,2.47
2023-02-11T17:00:17.148Z,2.78
2023-02-11T17:02:44.426Z,3.40
2023-02-11T17:05:20.535Z,2.90
2023-02-11T17:07:47.670Z,2.70
2023-02-11T17:10:17.306Z,2.22
2023-02-11T17:12:44.248Z,2.30
2023-02-11T17:15:11.356Z,2.40
2023-02-11T17:17:38.374Z,2.10
2023-02-11T17:20:07.150Z,1.80
2023-02-11T17:22:34.773Z,2.10
2023-02-11T17:25:01.717Z,1.85
2023-02-11T17:27:28.698Z,2.78
2023-02-11T17:29:55.758Z,2.05
2023-02-11T17:32:22.732Z,1.83
2023-02-11T17:34:49.788Z,2.00
2023-02-11T17:37:17.334Z,2.97
2023-02-11T17:39:44.962Z,2.22
2023-02-11T17:42:12.227Z,2.28
2023-02-11T17:44:39.237Z,2.40
2023-02-11T17:47:06.380Z,1.75
2023-02-11T17:49:33.411Z,1.95
2023-02-11T17:52:00.617Z,3.10
2023-02-11T17:54:27.681Z,1.67
2023-02-11T17:56:58.127Z,2.47
2023-02-11T17:59:26.208Z,2.75
2023-02-11T18:01:53.140Z,4.20
2023-02-11T18:04:20.652Z,3.85
2023-02-11T18:06:47.760Z,3.63
2023-02-11T18:09:14.892Z,3.28
2023-02-11T18:11:42.063Z,3.03
2023-02-11T18:14:10.337Z,2.63
2023-02-11T18:16:39.609Z,2.42
2023-02-11T18:19:07.907Z,2.25
2023-02-11T18:21:35.477Z,1.70
2023-02-11T18:24:06.461Z,3.40
2023-02-11T18:26:34.235Z,2.60
2023-02-11T18:29:01.226Z,1.70
2023-02-11T18:31:28.618Z,1.85
2023-02-11T18:33:56.289Z,1.90
2023-02-11T18:36:23.757Z,2.22
2023-02-11T18:38:52.849Z,1.63
2023-02-11T18:41:20.257Z,1.50
2023-02-11T18:43:47.191Z,1.27
2023-02-11T18:46:15.922Z,1.27
2023-02-11T18:48:44.987Z,2.63
2023-02-11T18:51:15.201Z,2.08
2023-02-11T18:53:42.785Z,1.37
2023-02-11T18:56:16.255Z,1.27
2023-02-11T18:58:43.614Z,1.30
2023-02-11T19:01:17.096Z,1.00
2023-02-11T19:03:45.437Z,1.90
2023-02-11T19:06:21.987Z,1.60
2023-02-11T19:08:49.080Z,1.30
2023-02-11T19:11:18.242Z,2.10
2023-02-11T19:13:48.699Z,1.45
2023-02-11T19:16:18.128Z,1.30
2023-02-11T19:18:45.035Z,3.00
2023-02-11T19:21:13.198Z,4.78
2023-02-11T19:23:40.308Z,5.07
2023-02-11T19:26:07.392Z,3.35
2023-02-11T19:28:37.310Z,9.32
2023-02-11T19:31:09.271Z,13.30
2023-02-11T19:33:37.070Z,37.20
2023-02-11T19:36:06.908Z,43.55
2023-02-11T19:38:34.777Z,50.88
2023-02-11T19:41:02.365Z,62.35
2023-02-11T19:43:29.755Z,91.75
2023-02-11T19:45:57.963Z,115.75
2023-02-11T19:48:25.867Z,96.03
2023-02-11T19:50:53.718Z,97.53
2023-02-11T19:53:21.066Z,117.95
2023-02-11T19:55:49.390Z,96.53
2023-02-11T19:58:17.720Z,107.72
2023-02-11T20:00:44.787Z,98.07
2023-02-11T20:03:11.858Z,80.70
2023-02-11T20:05:47.521Z,70.43
2023-02-11T20:08:17.584Z,56.53
2023-02-11T20:10:44.978Z,57.90
2023-02-11T20:13:12.071Z,51.45
2023-02-11T20:15:39.408Z,45.90
2023-02-11T20:18:07.327Z,42.80
2023-02-11T20:20:34.625Z,40.13
2023-02-11T20:23:01.812Z,38.00
2023-02-11T20:25:28.843Z,34.22
2023-02-11T20:27:56.173Z,34.80
2023-02-11T20:30:23.459Z,26.95
2023-02-11T20:32:50.370Z,29.77
2023-02-11T20:35:17.607Z,26.55
2023-02-11T20:37:45.091Z,23.73
2023-02-11T20:40:13.859Z,21.45
2023-02-11T20:42:41.311Z,24.13
2023-02-11T20:45:09.009Z,21.77
2023-02-11T20:47:37.986Z,18.38
2023-02-11T20:50:06.118Z,16.27
2023-02-11T20:52:34.774Z,17.05
2023-02-11T20:55:02.248Z,15.23
2023-02-11T20:57:29.582Z,16.48
2023-02-11T20:59:58.373Z,10.88
2023-02-11T21:02:28.230Z,14.55
2023-02-11T21:04:55.386Z,14.73
2023-02-11T21:07:23.156Z,13.52
2023-02-11T21:09:53.791Z,11.50
2023-02-11T21:12:21.216Z,12.57
2023-02-11T21:14:48.754Z,11.27
2023-02-11T21:17:16.219Z,10.10
2023-02-11T21:19:45.650Z,9.82
2023-02-11T21:22:13.967Z,8.43
2023-02-11T21:24:42.448Z,8.43
2023-02-11T21:27:11.734Z,7.97
2023-02-11T21:29:53.436Z,7.80
2023-02-11T21:32:22.934Z,6.78
2023-02-11T21:34:50.469Z,6.32
2023-02-11T21:37:18.553Z,6.00
2023-02-11T21:39:48.247Z,5.45
2023-02-11T21:42:18.804Z,4.78
2023-02-11T21:44:46.268Z,4.95
2023-02-11T21:47:13.967Z,4.70
2023-02-11T21:49:41.172Z,4.50
2023-02-11T21:52:08.235Z,3.78
2023-02-11T21:54:35.906Z,4.03
2023-02-11T21:57:05.800Z,3.75
2023-02-11T21:59:33.215Z,3.25
2023-02-11T22:02:00.359Z,4.18
2023-02-11T22:04:27.778Z,2.83
2023-02-11T22:06:58.497Z,2.97
2023-02-11T22:09:25.918Z,2.70
2023-02-11T22:11:55.620Z,2.58
2023-02-11T22:14:22.842Z,3.95
2023-02-11T22:16:50.235Z,2.70
2023-02-11T22:19:17.850Z,2.78
2023-02-11T22:21:45.248Z,2.65
2023-02-11T22:24:12.296Z,2.25
2023-02-11T22:26:39.374Z,2.88
2023-02-11T22:29:06.549Z,2.85
2023-02-11T22:31:35.422Z,3.50
2023-02-11T22:34:05.606Z,4.05
2023-02-11T22:36:38.758Z,3.53
2023-02-11T22:39:17.857Z,3.50
2023-02-11T22:41:46.710Z,2.70
2023-02-11T22:44:14.201Z,1.90
2023-02-11T22:46:41.473Z,2.33
2023-02-11T22:49:08.753Z,1.75
2023-02-11T22:51:35.853Z,1.98
2023-02-11T22:54:05.810Z,1.63
2023-02-11T22:56:34.639Z,1.20
2023-02-11T22:59:06.001Z,1.48
2023-02-11T23:01:33.350Z,1.85
2023-02-11T23:04:02.434Z,1.50
2023-02-11T23:06:29.450Z,1.50
2023-02-11T23:08:56.615Z,1.48
2023-02-11T23:11:27.333Z,1.20
2023-02-11T23:13:55.059Z,1.52
2023-02-11T23:16:26.151Z,1.38
2023-02-11T23:21:26.889Z,1.60
2023-02-11T23:23:56.446Z,1.38
2023-02-11T23:26:23.649Z,1.60
2023-02-11T23:28:50.616Z,1.17
2023-02-11T23:31:23.615Z,1.60
2023-02-11T23:33:50.870Z,1.55
2023-02-11T23:36:19.643Z,1.05
2023-02-11T23:38:46.920Z,1.40
2023-02-11T23:41:14.759Z,1.45
2023-02-11T23:43:41.944Z,1.00
2023-02-11T23:46:09.669Z,1.25
2023-02-11T23:48:37.986Z,1.25
2023-02-11T23:51:05.188Z,1.40
2023-02-11T23:53:32.108Z,1.30
2023-02-11T23:55:59.049Z,1.15
2023-02-11T23:58:25.987Z,1.13
